createdAt,value
2018-08-12T00:00:49.741Z,16.10
2018-08-12T00:03:17.987Z,16.00
2018-08-12T00:05:46.208Z,16.00
2018-08-12T00:08:14.460Z,15.90
2018-08-12T00:10:42.680Z,15.90
2018-08-12T00:13:10.908Z,15.80
2018-08-12T00:15:39.133Z,15.70
2018-08-12T00:18:07.333Z,15.70
2018-08-12T00:20:35.608Z,15.60
2018-08-12T00:23:03.832Z,15.60
2018-08-12T00:25:32.069Z,15.60
2018-08-12T00:28:00.253Z,15.30
2018-08-12T00:30:28.464Z,15.20
2018-08-12T00:32:56.698Z,15.00
2018-08-12T00:35:24.912Z,15.00
2018-08-12T00:37:53.128Z,15.00
2018-08-12T00:40:21.352Z,15.00
2018-08-12T00:42:49.625Z,15.00
2018-08-12T00:45:19.976Z,15.00
2018-08-12T00:47:48.512Z,14.80
2018-08-12T00:50:17.668Z,14.80
2018-08-12T00:52:45.933Z,14.80
2018-08-12T00:55:15.953Z,14.80
2018-08-12T00:57:45.148Z,14.80
2018-08-12T01:00:16.284Z,14.80
2018-08-12T01:02:44.496Z,14.70
2018-08-12T01:05:14.412Z,14.70
2018-08-12T01:07:43.100Z,14.60
2018-08-12T01:10:11.922Z,14.60
2018-08-12T01:12:40.165Z,14.60
2018-08-12T01:15:12.834Z,14.60
2018-08-12T01:17:41.125Z,14.60
2018-08-12T01:20:10.833Z,14.50
2018-08-12T01:22:40.216Z,14.50
2018-08-12T01:25:10.284Z,14.50
2018-08-12T01:27:38.609Z,14.50
2018-08-12T01:30:13.706Z,14.50
2018-08-12T01:32:42.118Z,14.50
2018-08-12T01:35:11.297Z,14.50
2018-08-12T01:37:39.911Z,14.40
2018-08-12T01:40:10.420Z,14.40
2018-08-12T01:42:39.061Z,14.30
2018-08-12T01:45:08.188Z,14.30
2018-08-12T01:47:36.411Z,14.40
2018-08-12T01:50:05.567Z,14.40
2018-08-12T01:52:33.769Z,14.40
2018-08-12T01:55:02.026Z,14.40
2018-08-12T01:57:30.234Z,14.30
2018-08-12T01:59:58.475Z,14.30
2018-08-12T02:02:26.694Z,14.20
2018-08-12T02:04:54.902Z,14.20
2018-08-12T02:07:23.124Z,14.20
2018-08-12T02:09:51.334Z,14.20
2018-08-12T02:12:20.510Z,14.20
2018-08-12T02:14:48.746Z,14.10
2018-08-12T02:17:16.942Z,14.20
2018-08-12T02:19:45.210Z,14.20
2018-08-12T02:22:13.686Z,14.20
2018-08-12T02:24:41.914Z,14.20
2018-08-12T02:27:10.147Z,14.20
2018-08-12T02:29:38.371Z,14.20
2018-08-12T02:32:06.578Z,14.20
2018-08-12T02:34:34.773Z,14.10
2018-08-12T02:37:03.019Z,14.10
2018-08-12T02:39:31.237Z,14.10
2018-08-12T02:41:59.447Z,14.00
2018-08-12T02:44:27.679Z,14.00
2018-08-12T02:46:55.894Z,14.00
2018-08-12T02:49:24.154Z,14.00
2018-08-12T02:51:52.414Z,14.00
2018-08-12T02:54:20.946Z,13.90
2018-08-12T02:56:49.203Z,13.90
2018-08-12T02:59:17.448Z,13.90
2018-08-12T03:01:45.723Z,14.00
2018-08-12T03:04:13.931Z,14.00
2018-08-12T03:06:42.211Z,14.00
2018-08-12T03:09:12.079Z,14.10
2018-08-12T03:11:40.398Z,14.10
2018-08-12T03:14:09.373Z,14.10
2018-08-12T03:16:37.584Z,14.00
2018-08-12T03:19:05.818Z,14.00
2018-08-12T03:21:34.051Z,13.90
2018-08-12T03:24:02.323Z,14.00
2018-08-12T03:26:30.524Z,14.00
2018-08-12T03:28:58.762Z,14.00
2018-08-12T03:31:26.971Z,14.00
2018-08-12T03:33:55.162Z,14.00
2018-08-12T03:36:23.520Z,14.00
2018-08-12T03:38:51.719Z,14.00
2018-08-12T03:41:20.124Z,14.00
2018-08-12T03:43:48.328Z,14.00
2018-08-12T03:46:16.528Z,13.90
2018-08-12T03:48:45.042Z,13.90
2018-08-12T03:51:13.376Z,13.90
2018-08-12T03:53:41.564Z,13.80
2018-08-12T03:56:09.791Z,13.80
2018-08-12T03:58:38.481Z,13.80
2018-08-12T04:01:08.172Z,13.80
2018-08-12T04:03:36.402Z,13.80
2018-08-12T04:06:04.676Z,13.70
2018-08-12T04:08:34.715Z,13.70
2018-08-12T04:11:02.934Z,13.70
2018-08-12T04:13:31.181Z,13.70
2018-08-12T04:15:59.459Z,13.70
2018-08-12T04:18:27.668Z,13.70
2018-08-12T04:20:55.893Z,13.70
2018-08-12T04:23:24.113Z,13.70
2018-08-12T04:25:52.359Z,13.70
2018-08-12T04:28:21.516Z,13.70
2018-08-12T04:30:49.833Z,13.70
2018-08-12T04:33:18.116Z,13.70
2018-08-12T04:35:46.345Z,13.70
2018-08-12T04:38:14.572Z,13.80
2018-08-12T04:40:42.820Z,13.80
2018-08-12T04:43:11.036Z,13.80
2018-08-12T04:45:39.260Z,13.70
2018-08-12T04:48:07.597Z,13.80
2018-08-12T04:50:35.804Z,13.80
2018-08-12T04:53:04.016Z,13.80
2018-08-12T04:55:32.210Z,13.80
2018-08-12T04:58:00.447Z,13.80
2018-08-12T05:00:28.656Z,13.80
2018-08-12T05:02:56.871Z,13.90
2018-08-12T05:05:25.079Z,13.90
2018-08-12T05:08:03.816Z,13.90
2018-08-12T05:10:32.072Z,13.90
2018-08-12T05:13:00.305Z,13.90
2018-08-12T05:15:28.489Z,13.90
2018-08-12T05:17:56.745Z,13.90
2018-08-12T05:20:25.057Z,13.90
2018-08-12T05:22:53.249Z,13.90
2018-08-12T05:25:22.012Z,14.10
2018-08-12T05:27:50.227Z,14.20
2018-08-12T05:30:18.439Z,14.30
2018-08-12T05:32:46.658Z,14.40
2018-08-12T05:35:14.877Z,14.40
2018-08-12T05:37:43.402Z,14.40
2018-08-12T05:40:12.594Z,14.50
2018-08-12T05:42:40.899Z,14.50
2018-08-12T05:45:10.131Z,14.50
2018-08-12T05:47:39.150Z,14.40
2018-08-12T05:50:09.644Z,14.40
2018-08-12T05:52:37.900Z,14.50
2018-08-12T05:55:07.076Z,14.60
2018-08-12T05:57:35.271Z,14.80
2018-08-12T06:00:03.679Z,14.90
2018-08-12T06:02:32.004Z,15.00
2018-08-12T06:05:00.236Z,15.00
2018-08-12T06:07:28.458Z,15.00
2018-08-12T06:09:56.723Z,15.20
2018-08-12T06:12:24.920Z,15.30
2018-08-12T06:14:53.165Z,15.50
2018-08-12T06:17:22.259Z,15.60
2018-08-12T06:19:50.442Z,15.80
2018-08-12T06:22:18.730Z,15.80
2018-08-12T06:24:46.985Z,16.00
2018-08-12T06:27:15.262Z,16.10
2018-08-12T06:29:43.473Z,16.20
2018-08-12T06:32:11.718Z,16.40
2018-08-12T06:34:40.250Z,16.50
2018-08-12T06:37:08.466Z,16.60
2018-08-12T06:39:36.742Z,16.80
2018-08-12T06:42:04.945Z,16.90
2018-08-12T06:44:33.194Z,17.10
2018-08-12T06:47:01.442Z,17.30
2018-08-12T06:49:29.766Z,17.70
2018-08-12T06:51:57.980Z,17.80
2018-08-12T06:54:26.241Z,18.00
2018-08-12T06:56:54.461Z,18.30
2018-08-12T06:59:22.685Z,18.60
2018-08-12T07:01:50.941Z,18.90
2018-08-12T07:04:19.169Z,19.00
2018-08-12T07:06:47.478Z,19.10
2018-08-12T07:09:15.770Z,19.10
2018-08-12T07:11:43.998Z,19.30
2018-08-12T07:14:12.579Z,19.50
2018-08-12T07:16:40.805Z,19.30
2018-08-12T07:19:09.126Z,19.40
2018-08-12T07:21:37.330Z,19.60
2018-08-12T07:24:05.727Z,19.70
2018-08-12T07:26:34.101Z,19.70
2018-08-12T07:29:02.362Z,20.00
2018-08-12T07:31:30.989Z,20.40
2018-08-12T07:33:59.394Z,20.70
2018-08-12T07:36:28.026Z,21.00
2018-08-12T07:38:56.387Z,21.40
2018-08-12T07:41:24.590Z,21.50
2018-08-12T07:43:52.862Z,21.20
2018-08-12T07:46:21.110Z,21.00
2018-08-12T07:48:49.676Z,21.00
2018-08-12T07:51:17.895Z,21.00
2018-08-12T07:53:46.174Z,20.80
2018-08-12T07:56:14.423Z,20.80
2018-08-12T07:58:42.813Z,20.70
2018-08-12T08:01:11.030Z,20.80
2018-08-12T08:03:39.237Z,20.80
2018-08-12T08:06:07.474Z,20.90
2018-08-12T08:08:35.722Z,21.00
2018-08-12T08:11:03.938Z,21.10
2018-08-12T08:13:32.155Z,21.10
2018-08-12T08:16:00.395Z,21.20
2018-08-12T08:18:28.615Z,21.30
2018-08-12T08:20:56.886Z,21.20
2018-08-12T08:23:25.111Z,21.00
2018-08-12T08:25:53.409Z,21.00
2018-08-12T08:28:21.618Z,21.20
2018-08-12T08:30:49.842Z,21.30
2018-08-12T08:33:18.043Z,21.30
2018-08-12T08:35:46.239Z,21.40
2018-08-12T08:38:14.471Z,21.50
2018-08-12T08:40:42.676Z,21.60
2018-08-12T08:43:10.899Z,21.70
2018-08-12T08:45:39.132Z,21.80
2018-08-12T08:48:07.367Z,21.90
2018-08-12T08:50:35.622Z,22.10
2018-08-12T08:53:03.818Z,22.20
2018-08-12T08:55:32.043Z,22.40
2018-08-12T08:58:00.242Z,22.50
2018-08-12T09:00:28.475Z,22.70
2018-08-12T09:02:56.707Z,22.90
2018-08-12T09:05:24.935Z,23.10
2018-08-12T09:07:53.270Z,23.20
2018-08-12T09:10:21.654Z,23.20
2018-08-12T09:12:49.894Z,23.40
2018-08-12T09:15:19.251Z,23.50
2018-08-12T09:17:48.044Z,23.60
2018-08-12T09:20:18.384Z,23.80
2018-08-12T09:22:46.622Z,24.30
2018-08-12T09:25:14.999Z,24.30
2018-08-12T09:27:43.201Z,24.70
2018-08-12T09:30:15.371Z,25.00
2018-08-12T09:32:44.248Z,25.10
2018-08-12T09:35:12.483Z,25.30
2018-08-12T09:37:40.759Z,25.50
2018-08-12T09:40:11.539Z,25.60
2018-08-12T09:42:40.264Z,25.70
2018-08-12T09:45:10.567Z,25.70
2018-08-12T09:47:39.252Z,25.80
2018-08-12T09:50:08.168Z,25.90
2018-08-12T09:52:36.796Z,26.00
2018-08-12T09:55:05.632Z,26.30
2018-08-12T09:57:34.104Z,26.70
2018-08-12T10:00:02.337Z,26.60
2018-08-12T10:02:30.579Z,26.90
2018-08-12T10:04:58.795Z,27.00
2018-08-12T10:07:27.096Z,27.10
2018-08-12T10:09:55.316Z,27.00
2018-08-12T10:12:23.707Z,26.80
2018-08-12T10:14:51.976Z,26.60
2018-08-12T10:17:20.232Z,26.70
2018-08-12T10:19:48.576Z,26.60
2018-08-12T10:22:16.841Z,26.70
2018-08-12T10:24:45.088Z,27.10
2018-08-12T10:27:13.397Z,27.40
2018-08-12T10:29:41.699Z,26.90
2018-08-12T10:32:09.948Z,26.70
2018-08-12T10:34:38.179Z,26.70
2018-08-12T10:37:06.465Z,27.00
2018-08-12T10:39:34.828Z,27.30
2018-08-12T10:42:03.033Z,27.70
2018-08-12T10:44:31.382Z,27.80
2018-08-12T10:46:59.532Z,28.10
2018-08-12T10:49:27.772Z,28.20
2018-08-12T10:51:56.026Z,28.60
2018-08-12T10:54:24.253Z,28.90
2018-08-12T10:56:52.893Z,28.60
2018-08-12T10:59:21.250Z,28.20
2018-08-12T11:01:49.602Z,28.60
2018-08-12T11:04:17.865Z,28.70
2018-08-12T11:06:48.754Z,28.70
2018-08-12T11:09:20.828Z,28.80
2018-08-12T11:11:49.193Z,29.00
2018-08-12T11:14:17.539Z,29.00
2018-08-12T11:16:45.872Z,28.50
2018-08-12T11:19:14.281Z,28.60
2018-08-12T11:21:42.577Z,28.70
2018-08-12T11:24:10.950Z,28.70
2018-08-12T11:26:39.245Z,28.70
2018-08-12T11:29:07.822Z,28.80
2018-08-12T11:31:36.178Z,28.90
2018-08-12T11:34:04.426Z,29.20
2018-08-12T11:36:32.777Z,29.30
2018-08-12T11:39:01.074Z,29.40
2018-08-12T11:41:29.334Z,29.30
2018-08-12T11:43:57.605Z,29.40
2018-08-12T11:46:25.879Z,29.60
2018-08-12T11:48:54.182Z,29.70
2018-08-12T11:51:22.502Z,29.40
2018-08-12T11:53:51.074Z,29.30
2018-08-12T11:56:19.358Z,29.10
2018-08-12T11:58:47.661Z,29.10
2018-08-12T12:01:15.979Z,29.20
2018-08-12T12:03:44.272Z,29.30
2018-08-12T12:06:12.660Z,29.50
2018-08-12T12:08:40.973Z,29.10
2018-08-12T12:11:09.199Z,29.10
2018-08-12T12:13:37.462Z,28.80
2018-08-12T12:16:06.594Z,29.00
2018-08-12T12:18:34.791Z,29.00
2018-08-12T12:21:03.178Z,29.00
2018-08-12T12:23:31.526Z,29.10
2018-08-12T12:25:59.792Z,28.90
2018-08-12T12:28:28.149Z,29.30
2018-08-12T12:30:56.343Z,29.10
2018-08-12T12:33:27.811Z,29.30
2018-08-12T12:35:56.137Z,29.70
2018-08-12T12:38:24.730Z,29.90
2018-08-12T12:40:53.071Z,30.40
2018-08-12T12:43:21.356Z,30.60
2018-08-12T12:45:49.616Z,30.80
2018-08-12T12:48:17.807Z,30.90
2018-08-12T12:50:46.065Z,30.90
2018-08-12T12:53:14.287Z,31.00
2018-08-12T12:55:42.588Z,30.70
2018-08-12T12:58:10.868Z,30.40
2018-08-12T13:00:41.272Z,30.00
2018-08-12T13:03:09.624Z,29.90
2018-08-12T13:05:38.119Z,29.90
2018-08-12T13:08:06.380Z,30.20
2018-08-12T13:10:34.719Z,29.90
2018-08-12T13:13:02.999Z,30.00
2018-08-12T13:15:31.535Z,30.10
2018-08-12T13:17:59.910Z,30.40
2018-08-12T13:20:28.216Z,30.60
2018-08-12T13:22:56.460Z,30.70
2018-08-12T13:25:25.017Z,30.60
2018-08-12T13:27:53.311Z,30.50
2018-08-12T13:30:22.196Z,30.70
2018-08-12T13:32:50.903Z,30.50
2018-08-12T13:35:19.167Z,30.60
2018-08-12T13:37:47.444Z,30.30
2018-08-12T13:40:16.719Z,30.60
2018-08-12T13:42:45.512Z,30.50
2018-08-12T13:45:14.296Z,30.90
2018-08-12T13:47:43.883Z,30.80
2018-08-12T13:50:18.568Z,30.60
2018-08-12T13:52:47.344Z,30.30
2018-08-12T13:55:15.654Z,30.50
2018-08-12T13:57:44.088Z,30.60
2018-08-12T14:00:15.137Z,30.50
2018-08-12T14:02:43.424Z,30.70
2018-08-12T14:05:13.213Z,30.90
2018-08-12T14:07:41.413Z,31.20
2018-08-12T14:10:10.841Z,31.00
2018-08-12T14:12:39.453Z,30.60
2018-08-12T14:15:10.162Z,30.30
2018-08-12T14:17:38.992Z,30.50
2018-08-12T14:20:07.845Z,30.70
2018-08-12T14:22:36.070Z,30.80
2018-08-12T14:25:04.713Z,30.10
2018-08-12T14:27:32.926Z,29.80
2018-08-12T14:30:01.165Z,29.90
2018-08-12T14:32:29.441Z,30.00
2018-08-12T14:34:57.769Z,30.00
2018-08-12T14:37:25.992Z,30.10
2018-08-12T14:39:54.232Z,30.40
2018-08-12T14:42:22.554Z,30.80
2018-08-12T14:44:50.797Z,30.70
2018-08-12T14:47:19.129Z,30.40
2018-08-12T14:49:47.437Z,30.30
2018-08-12T14:52:15.710Z,30.40
2018-08-12T14:54:44.892Z,29.90
2018-08-12T14:57:13.059Z,29.50
2018-08-12T14:59:41.313Z,29.40
2018-08-12T15:02:09.662Z,29.40
2018-08-12T15:04:38.009Z,29.40
2018-08-12T15:07:06.308Z,29.60
2018-08-12T15:09:34.521Z,29.80
2018-08-12T15:12:02.918Z,29.80
2018-08-12T15:14:31.209Z,30.10
2018-08-12T15:16:59.866Z,30.20
2018-08-12T15:19:28.093Z,30.10
2018-08-12T15:21:56.362Z,29.70
2018-08-12T15:24:25.582Z,29.50
2018-08-12T15:26:53.842Z,29.10
2018-08-12T15:29:22.107Z,29.00
2018-08-12T15:31:50.354Z,29.00
2018-08-12T15:34:18.878Z,28.70
2018-08-12T15:36:47.185Z,28.70
2018-08-12T15:39:16.357Z,28.80
2018-08-12T15:41:44.625Z,28.90
2018-08-12T15:44:12.943Z,29.00
2018-08-12T15:46:41.134Z,29.10
2018-08-12T15:49:09.365Z,29.10
2018-08-12T15:51:37.606Z,29.20
2018-08-12T15:54:05.898Z,29.40
2018-08-12T15:56:34.424Z,29.40
2018-08-12T15:59:02.949Z,29.20
2018-08-12T16:01:31.187Z,29.10
2018-08-12T16:03:59.418Z,28.50
2018-08-12T16:06:27.733Z,28.50
2018-08-12T16:08:56.384Z,28.20
2018-08-12T16:11:24.694Z,28.10
2018-08-12T16:13:52.910Z,28.30
2018-08-12T16:16:21.500Z,28.60
2018-08-12T16:18:49.738Z,28.80
2018-08-12T16:21:18.046Z,28.90
2018-08-12T16:23:46.286Z,28.80
2018-08-12T16:26:14.563Z,28.60
2018-08-12T16:28:42.838Z,28.60
2018-08-12T16:31:11.073Z,28.50
2018-08-12T16:33:39.282Z,28.30
2018-08-12T16:36:08.485Z,28.20
2018-08-12T16:38:36.942Z,28.30
2018-08-12T16:41:05.451Z,28.40
2018-08-12T16:43:33.766Z,28.40
2018-08-12T16:46:02.097Z,28.50
2018-08-12T16:48:30.435Z,28.50
2018-08-12T16:50:58.838Z,28.40
2018-08-12T16:53:27.303Z,28.30
2018-08-12T16:55:55.774Z,28.30
2018-08-12T16:58:24.051Z,28.20
2018-08-12T17:00:52.583Z,28.30
2018-08-12T17:03:21.255Z,28.30
2018-08-12T17:05:49.496Z,28.40
2018-08-12T17:08:17.691Z,28.40
2018-08-12T17:10:45.927Z,28.30
2018-08-12T17:13:14.247Z,28.20
2018-08-12T17:15:42.591Z,28.20
2018-08-12T17:18:11.048Z,28.20
2018-08-12T17:20:39.633Z,28.10
2018-08-12T17:23:07.892Z,28.00
2018-08-12T17:25:36.187Z,28.10
2018-08-12T17:28:04.375Z,28.10
2018-08-12T17:30:32.672Z,28.20
2018-08-12T17:33:00.905Z,28.10
2018-08-12T17:35:29.152Z,28.20
2018-08-12T17:37:57.380Z,28.20
2018-08-12T17:40:26.542Z,28.10
2018-08-12T17:42:54.914Z,28.00
2018-08-12T17:45:23.165Z,27.90
2018-08-12T17:47:51.405Z,27.80
2018-08-12T17:50:19.713Z,27.70
2018-08-12T17:52:47.940Z,27.70
2018-08-12T17:55:16.198Z,27.60
2018-08-12T17:57:44.444Z,27.50
2018-08-12T18:00:14.348Z,27.50
2018-08-12T18:02:42.722Z,27.40
2018-08-12T18:05:11.176Z,27.40
2018-08-12T18:07:40.313Z,27.40
2018-08-12T18:10:08.681Z,27.30
2018-08-12T18:12:37.656Z,27.30
2018-08-12T18:15:06.989Z,27.20
2018-08-12T18:17:35.237Z,27.10
2018-08-12T18:20:03.498Z,27.00
2018-08-12T18:22:31.776Z,27.00
2018-08-12T18:25:00.030Z,27.00
2018-08-12T18:27:28.297Z,27.00
2018-08-12T18:29:56.590Z,27.10
2018-08-12T18:32:25.021Z,27.10
2018-08-12T18:34:53.217Z,27.00
2018-08-12T18:37:21.540Z,27.00
2018-08-12T18:39:49.773Z,27.00
2018-08-12T18:42:18.032Z,26.90
2018-08-12T18:44:46.293Z,26.80
2018-08-12T18:47:14.521Z,26.90
2018-08-12T18:49:42.785Z,26.80
2018-08-12T18:52:11.021Z,26.80
2018-08-12T18:54:39.224Z,26.70
2018-08-12T18:57:07.481Z,26.60
2018-08-12T18:59:35.953Z,26.60
2018-08-12T19:02:04.253Z,26.50
2018-08-12T19:04:32.525Z,26.40
2018-08-12T19:07:00.822Z,26.30
2018-08-12T19:09:30.581Z,26.20
2018-08-12T19:11:58.965Z,26.20
2018-08-12T19:14:27.211Z,26.10
2018-08-12T19:16:56.024Z,26.00
2018-08-12T19:19:24.316Z,26.00
2018-08-12T19:21:52.606Z,25.90
2018-08-12T19:24:21.061Z,25.80
2018-08-12T19:26:49.852Z,25.60
2018-08-12T19:29:19.534Z,25.60
2018-08-12T19:31:47.748Z,25.50
2018-08-12T19:34:15.942Z,25.40
2018-08-12T19:36:44.614Z,25.30
2018-08-12T19:39:12.942Z,25.10
2018-08-12T19:41:41.186Z,25.00
2018-08-12T19:44:09.642Z,25.00
2018-08-12T19:46:38.407Z,25.00
2018-08-12T19:49:06.623Z,25.00
2018-08-12T19:51:34.834Z,24.80
2018-08-12T19:58:59.022Z,24.70
2018-08-12T20:01:27.299Z,24.40
2018-08-12T20:03:55.575Z,24.40
2018-08-12T20:06:23.799Z,24.30
2018-08-12T20:08:52.007Z,24.20
2018-08-12T20:11:20.247Z,24.10
2018-08-12T20:13:48.498Z,24.00
2018-08-12T20:16:16.710Z,24.00
2018-08-12T20:18:45.003Z,24.00
2018-08-12T20:21:13.430Z,23.90
2018-08-12T20:23:41.655Z,23.80
2018-08-12T20:26:09.890Z,23.70
2018-08-12T20:28:38.187Z,23.70
2018-08-12T20:31:06.459Z,23.60
2018-08-12T20:33:34.662Z,23.40
2018-08-12T20:36:02.947Z,23.40
2018-08-12T20:38:31.178Z,23.40
2018-08-12T20:40:59.402Z,23.30
2018-08-12T20:43:28.064Z,23.40
2018-08-12T20:45:56.331Z,23.40
2018-08-12T20:48:24.611Z,23.30
2018-08-12T20:50:52.883Z,23.30
2018-08-12T20:53:21.152Z,23.20
2018-08-12T20:55:49.355Z,23.20
2018-08-12T20:58:17.640Z,23.10
2018-08-12T21:00:45.951Z,23.00
2018-08-12T21:03:14.360Z,23.00
2018-08-12T21:05:42.831Z,22.90
2018-08-12T21:08:11.160Z,22.90
2018-08-12T21:10:39.991Z,22.90
2018-08-12T21:13:08.281Z,22.90
2018-08-12T21:15:36.517Z,22.80
2018-08-12T21:18:04.848Z,22.80
2018-08-12T21:23:01.119Z,22.70
2018-08-12T21:25:29.462Z,22.50
2018-08-12T21:27:57.747Z,22.40
2018-08-12T21:30:26.007Z,22.20
2018-08-12T21:32:54.219Z,22.10
2018-08-12T21:35:22.487Z,22.10
2018-08-12T21:37:50.825Z,22.10
2018-08-12T21:40:19.059Z,22.10
2018-08-12T21:42:47.322Z,22.00
2018-08-12T21:45:15.569Z,22.10
2018-08-12T21:47:43.870Z,22.10
2018-08-12T21:50:12.192Z,22.00
2018-08-12T21:52:40.543Z,22.00
2018-08-12T21:55:08.800Z,22.00
2018-08-12T21:57:37.139Z,21.80
2018-08-12T22:00:09.420Z,21.80
2018-08-12T22:02:37.747Z,21.80
2018-08-12T22:05:06.283Z,21.80
2018-08-12T22:07:34.548Z,21.70
2018-08-12T22:10:02.787Z,21.70
2018-08-12T22:12:31.024Z,21.60
2018-08-12T22:14:59.275Z,21.60
2018-08-12T22:17:28.326Z,21.50
2018-08-12T22:19:56.560Z,21.50
2018-08-12T22:22:25.297Z,21.50
2018-08-12T22:24:53.573Z,21.50
2018-08-12T22:27:21.903Z,21.40
2018-08-12T22:34:46.143Z,21.40
2018-08-12T22:37:14.385Z,21.30
2018-08-12T22:39:42.639Z,21.10
2018-08-12T22:42:10.907Z,21.10
2018-08-12T22:44:39.550Z,21.00
2018-08-12T22:47:07.863Z,20.90
2018-08-12T22:49:36.156Z,20.90
2018-08-12T22:52:04.476Z,20.80
2018-08-12T22:54:32.754Z,20.80
2018-08-12T22:57:01.008Z,20.80
2018-08-12T22:59:29.179Z,20.70
2018-08-12T23:01:57.432Z,20.70
2018-08-12T23:04:25.729Z,20.70
2018-08-12T23:06:53.963Z,20.70
2018-08-12T23:09:22.177Z,20.60
2018-08-12T23:11:50.412Z,20.60
2018-08-12T23:14:18.607Z,20.60
2018-08-12T23:16:56.796Z,20.60
2018-08-12T23:19:25.120Z,20.60
2018-08-12T23:21:53.656Z,20.60
